Time;durP1;ratioP1;P1;durP2;ratioP2;P2;SDS_P1;SDS_P2;PMS_P1;PMS_P2;Temp;Humidity;BMP_temperature;BMP_pressure;BME280_temperature;BME280_humidity;BME280_pressure;Samples;Min_cycle;Max_cycle;Signal;HPM_P1;HPM_P2
2021/05/16 00:00:19;;;;;;;9.33;7.90;;;;;;;-144.99;nan;52411.41;4970444;28;20224;-59
2021/05/16 00:02:48;;;;;;;11.53;8.73;;;;;;;-144.99;nan;52448.09;4971769;28;20298;-60
2021/05/16 00:05:19;;;;;;;8.13;7.03;;;;;;;-144.99;nan;52409.38;4970125;28;20589;-59
2021/05/16 00:07:48;;;;;;;8.87;6.77;;;;;;;-144.99;nan;52395.09;4974601;28;20665;-63
2021/05/16 00:10:16;;;;;;;10.90;7.47;;;;;;;-144.99;nan;52417.53;4972301;28;20200;-60
2021/05/16 00:12:45;;;;;;;8.67;7.63;;;;;;;-144.99;nan;52435.88;4975754;28;21047;-61
2021/05/16 00:15:16;;;;;;;8.30;6.60;;;;;;;-144.99;nan;52395.09;4977503;28;20700;-60
2021/05/16 00:17:45;;;;;;;9.00;7.40;;;;;;;-144.99;nan;52370.63;4975737;28;20208;-63
2021/05/16 00:20:15;;;;;;;8.70;6.40;;;;;;;-144.99;nan;52439.94;4980351;28;20219;-63
2021/05/16 00:22:42;;;;;;;9.27;7.53;;;;;;;-144.99;nan;52439.94;4976338;28;20208;-64
2021/05/16 00:25:15;;;;;;;9.10;8.20;;;;;;;-144.99;nan;52419.56;4978805;28;20216;-63
2021/05/16 00:27:43;;;;;;;10.83;7.70;;;;;;;-144.99;nan;52376.75;4975754;28;20599;-64
2021/05/16 00:30:11;;;;;;;11.63;8.77;;;;;;;-144.99;nan;52403.25;4978650;28;20352;-62
2021/05/16 00:32:37;;;;;;;8.57;6.97;;;;;;;-144.99;nan;52362.50;4974753;28;20220;-62
2021/05/16 00:35:05;;;;;;;7.47;6.20;;;;;;;-144.99;nan;52439.94;4976558;28;20211;-62
2021/05/16 00:37:34;;;;;;;8.20;6.70;;;;;;;-144.99;nan;52433.81;4975776;28;20258;-62
2021/05/16 00:40:04;;;;;;;8.70;6.07;;;;;;;-144.99;nan;52427.72;4975492;28;20705;-62
2021/05/16 00:42:31;;;;;;;9.63;8.03;;;;;;;-144.99;nan;52452.16;4977117;28;20726;-63
2021/05/16 00:45:04;;;;;;;7.60;6.00;;;;;;;-144.99;nan;52391.03;4977830;28;20223;-63
2021/05/16 00:47:30;;;;;;;10.20;6.53;;;;;;;-144.99;nan;52437.91;4971994;28;20604;-64
2021/05/16 00:49:57;;;;;;;8.80;6.87;;;;;;;-144.99;nan;52419.56;4979040;28;20698;-62
2021/05/16 00:52:23;;;;;;;8.27;7.43;;;;;;;-144.99;nan;52403.25;4971702;28;20216;-63
2021/05/16 00:54:50;;;;;;;7.77;6.67;;;;;;;-144.99;nan;52427.72;4973109;28;20211;-62
2021/05/16 00:57:20;;;;;;;8.50;7.40;;;;;;;-144.99;nan;52411.41;4970443;28;20317;-63
2021/05/16 00:59:49;;;;;;;6.00;5.20;;;;;;;-144.99;nan;52407.31;4632745;28;10001295;-60
2021/05/16 01:02:15;;;;;;;6.10;5.03;;;;;;;-144.99;nan;52378.78;4974205;28;20242;-61
2021/05/16 01:04:44;;;;;;;11.00;7.50;;;;;;;-144.99;nan;52409.38;4976570;28;20216;-62
2021/05/16 01:07:16;;;;;;;11.93;5.43;;;;;;;-144.99;nan;52391.03;4976218;28;20256;-60
2021/05/16 01:09:43;;;;;;;10.10;6.50;;;;;;;-144.99;nan;52409.38;4972486;28;20244;-61
2021/05/16 01:12:12;;;;;;;7.30;6.47;;;;;;;-144.99;nan;52403.25;4979467;28;20200;-59
2021/05/16 01:14:46;;;;;;;8.60;6.43;;;;;;;-144.99;nan;52374.72;4975593;28;20212;-59
2021/05/16 01:17:13;;;;;;;7.57;6.00;;;;;;;-144.99;nan;52397.13;4966430;28;20212;-58
2021/05/16 01:19:40;;;;;;;7.80;6.33;;;;;;;-144.99;nan;52391.03;4978669;28;20239;-59
2021/05/16 01:22:12;;;;;;;7.43;6.53;;;;;;;-144.99;nan;52407.31;4976939;28;20623;-60
2021/05/16 01:24:43;;;;;;;9.63;7.37;;;;;;;-144.99;nan;52407.31;4975772;28;20270;-61
2021/05/16 01:27:14;;;;;;;6.73;5.57;;;;;;;-144.99;nan;52415.47;4978359;28;20232;-60
2021/05/16 01:29:40;;;;;;;6.67;5.93;;;;;;;-144.99;nan;52433.81;4980037;28;20248;-59
2021/05/16 01:32:11;;;;;;;6.33;5.00;;;;;;;-144.99;nan;52456.25;4976997;28;20223;-58
2021/05/16 01:34:40;;;;;;;7.20;5.83;;;;;;;-144.99;nan;52386.94;4969466;28;20389;-62
2021/05/16 01:37:07;;;;;;;6.60;4.80;;;;;;;-144.99;nan;52425.66;4979044;28;20557;-63
2021/05/16 01:39:34;;;;;;;7.43;6.30;;;;;;;-144.99;nan;52419.56;4975391;28;20634;-64
2021/05/16 01:42:03;;;;;;;9.20;6.23;;;;;;;-144.99;nan;52419.56;4980382;28;20235;-63
2021/05/16 01:44:36;;;;;;;8.70;7.20;;;;;;;-144.99;nan;52423.63;4977757;28;20211;-62
2021/05/16 01:47:02;;;;;;;6.50;5.50;;;;;;;-144.99;nan;52415.47;4973699;28;20220;-61
2021/05/16 01:49:29;;;;;;;8.30;6.03;;;;;;;-144.99;nan;52441.97;4980527;28;20394;-63
2021/05/16 01:52:01;;;;;;;6.23;5.23;;;;;;;-144.99;nan;52431.78;4975333;28;20220;-64
2021/05/16 01:54:30;;;;;;;7.23;5.80;;;;;;;-144.99;nan;52403.25;4977274;28;20204;-63
2021/05/16 01:57:00;;;;;;;6.70;5.80;;;;;;;-144.99;nan;52431.78;4975030;28;20286;-63
2021/05/16 01:59:35;;;;;;;7.57;6.27;;;;;;;-144.99;nan;52415.47;4978583;28;20731;-63
2021/05/16 02:02:02;;;;;;;8.33;5.40;;;;;;;-144.99;nan;52439.94;4976183;28;20219;-64
2021/05/16 02:04:33;;;;;;;6.07;5.00;;;;;;;-144.99;nan;52391.03;4974611;28;20216;-63
2021/05/16 02:06:59;;;;;;;7.87;5.50;;;;;;;-144.99;nan;52425.66;4979321;28;20211;-64
2021/05/16 02:09:27;;;;;;;6.93;5.93;;;;;;;-144.99;nan;52393.06;4976034;28;20236;-60
2021/05/16 02:11:53;;;;;;;6.30;5.17;;;;;;;-144.99;nan;52417.53;4982086;28;20590;-61
2021/05/16 02:14:25;;;;;;;7.40;5.77;;;;;;;-144.99;nan;52391.03;4976641;28;20266;-61
2021/05/16 02:16:51;;;;;;;7.23;5.80;;;;;;;-144.99;nan;52415.47;4976597;28;20390;-61
2021/05/16 02:19:23;;;;;;;7.50;5.53;;;;;;;-144.99;nan;52431.78;4978230;28;20216;-61
2021/05/16 02:21:50;;;;;;;5.93;5.30;;;;;;;-144.99;nan;52419.56;4979971;28;20219;-61
2021/05/16 02:24:19;;;;;;;5.30;4.67;;;;;;;-144.99;nan;52431.78;4971413;28;20205;-61
2021/05/16 02:26:46;;;;;;;5.83;4.63;;;;;;;-144.99;nan;52441.97;4978034;28;20214;-63
2021/05/16 02:29:16;;;;;;;6.43;5.20;;;;;;;-144.99;nan;52433.81;4973841;28;20240;-61
2021/05/16 02:31:43;;;;;;;6.67;5.97;;;;;;;-144.99;nan;52407.31;4970646;28;20274;-62
2021/05/16 02:34:12;;;;;;;7.77;5.90;;;;;;;-144.99;nan;52411.41;4978225;28;20791;-63
2021/05/16 02:36:38;;;;;;;7.27;5.33;;;;;;;-144.99;nan;52417.53;4979167;28;20207;-61
2021/05/16 02:39:05;;;;;;;10.87;5.67;;;;;;;-144.99;nan;52354.34;4972391;28;20232;-62
2021/05/16 02:41:31;;;;;;;7.43;6.40;;;;;;;-144.99;nan;52403.25;4980737;28;20227;-61
2021/05/16 02:44:03;;;;;;;6.47;5.57;;;;;;;-144.99;nan;52431.78;4975046;28;20208;-61
2021/05/16 02:46:32;;;;;;;7.10;5.77;;;;;;;-144.99;nan;52423.63;4966233;28;20216;-59
2021/05/16 02:48:59;;;;;;;6.47;4.53;;;;;;;-144.99;nan;52362.50;4975178;28;20232;-58
2021/05/16 02:51:29;;;;;;;7.57;6.33;;;;;;;-144.99;nan;52401.22;4978921;28;20667;-61
2021/05/16 02:53:55;;;;;;;7.37;5.43;;;;;;;-144.99;nan;52354.34;4975639;28;20212;-61
2021/05/16 02:56:21;;;;;;;7.13;6.23;;;;;;;-144.99;nan;52444.03;4974565;28;20213;-60
2021/05/16 02:58:47;;;;;;;6.80;5.63;;;;;;;-144.99;nan;52456.25;4978544;28;20232;-61
2021/05/16 03:01:13;;;;;;;6.13;4.93;;;;;;;-144.99;nan;52419.56;4976233;28;20682;-60
2021/05/16 03:03:39;;;;;;;5.93;4.73;;;;;;;-144.99;nan;52395.09;4980647;28;20208;-61
2021/05/16 03:06:07;;;;;;;5.77;4.50;;;;;;;-144.99;nan;52403.25;4977433;28;20329;-61
2021/05/16 03:08:34;;;;;;;6.70;5.40;;;;;;;-144.99;nan;52376.75;4971178;28;20733;-61
2021/05/16 03:11:02;;;;;;;5.70;4.30;;;;;;;-144.99;nan;52407.31;4978926;28;20207;-60
2021/05/16 03:13:34;;;;;;;6.57;4.93;;;;;;;-144.99;nan;52423.63;4975439;28;20584;-60
2021/05/16 03:16:03;;;;;;;6.87;5.37;;;;;;;-144.99;nan;52415.47;4972314;28;20689;-60
2021/05/16 03:18:32;;;;;;;5.57;4.20;;;;;;;-144.99;nan;52415.47;4978008;28;20223;-60
2021/05/16 03:21:03;;;;;;;7.00;6.00;;;;;;;-144.99;nan;52456.25;4974096;28;20212;-61
2021/05/16 03:23:39;;;;;;;9.57;5.17;;;;;;;-144.99;nan;52435.88;4975091;28;20200;-61
2021/05/16 03:26:08;;;;;;;7.90;5.00;;;;;;;-144.99;nan;52480.72;4974305;28;20267;-61
2021/05/16 03:28:42;;;;;;;6.07;4.57;;;;;;;-144.99;nan;52399.19;4983557;28;20231;-60
2021/05/16 03:31:08;;;;;;;6.47;4.87;;;;;;;-144.99;nan;52403.25;4972463;28;20273;-59
2021/05/16 03:33:37;;;;;;;7.70;6.37;;;;;;;-144.99;nan;52386.94;4965313;28;20208;-58
2021/05/16 03:36:07;;;;;;;4.87;3.87;;;;;;;-144.99;nan;52431.78;4973592;28;20663;-59
2021/05/16 03:38:34;;;;;;;4.83;3.80;;;;;;;-144.99;nan;52419.56;4975856;28;20228;-58
2021/05/16 03:41:00;;;;;;;6.63;4.97;;;;;;;-144.99;nan;52372.69;4976751;28;20223;-58
2021/05/16 03:43:32;;;;;;;5.90;4.20;;;;;;;-144.99;nan;52399.19;4982215;28;20204;-59
2021/05/16 03:45:58;;;;;;;4.90;3.80;;;;;;;-144.99;nan;52421.59;4977482;28;20208;-59
2021/05/16 03:48:26;;;;;;;5.10;4.30;;;;;;;-144.99;nan;52368.59;4977010;28;20232;-59
2021/05/16 03:50:57;;;;;;;5.70;3.67;;;;;;;-144.99;nan;52427.72;4982379;28;20231;-64
2021/05/16 03:53:26;;;;;;;5.40;4.23;;;;;;;-144.99;nan;52401.22;4977388;28;20200;-65
2021/05/16 03:55:52;;;;;;;6.07;5.13;;;;;;;-144.99;nan;52435.88;4973738;28;20219;-63
2021/05/16 03:58:18;;;;;;;7.00;4.60;;;;;;;-144.99;nan;52431.78;4980459;28;20220;-64
2021/05/16 04:00:44;;;;;;;5.93;5.03;;;;;;;-144.99;nan;52411.41;4979536;28;20242;-64
2021/05/16 04:03:10;;;;;;;5.97;4.93;;;;;;;-144.99;nan;52446.06;4980665;28;20274;-63
2021/05/16 04:05:39;;;;;;;6.83;4.87;;;;;;;-144.99;nan;52419.56;4980468;28;20211;-65
2021/05/16 04:08:05;;;;;;;6.07;4.50;;;;;;;-144.99;nan;52403.25;4974060;28;20243;-64
2021/05/16 04:10:32;;;;;;;5.80;4.67;;;;;;;-144.99;nan;52407.31;4980751;28;20207;-64
2021/05/16 04:13:02;;;;;;;5.17;4.13;;;;;;;-144.99;nan;52413.44;4976966;28;20213;-65
2021/05/16 04:15:28;;;;;;;6.60;4.97;;;;;;;-144.99;nan;52419.56;4978869;28;20208;-62
2021/05/16 04:17:54;;;;;;;6.70;4.90;;;;;;;-144.99;nan;52399.19;4972383;28;20331;-62
2021/05/16 04:20:20;;;;;;;6.20;5.57;;;;;;;-144.99;nan;52437.91;4981515;28;20313;-62
2021/05/16 04:22:49;;;;;;;5.60;4.70;;;;;;;-144.99;nan;52415.47;4977264;28;20255;-62
2021/05/16 04:25:15;;;;;;;7.70;5.37;;;;;;;-144.99;nan;52399.19;4969703;28;20209;-62
2021/05/16 04:27:41;;;;;;;11.90;5.47;;;;;;;-144.99;nan;52403.25;4979219;28;20216;-59
2021/05/16 04:30:09;;;;;;;9.87;5.90;;;;;;;-144.99;nan;52399.19;4983897;28;20243;-59
2021/05/16 04:32:38;;;;;;;6.97;5.40;;;;;;;-144.99;nan;52378.78;4977461;28;20220;-60
2021/05/16 04:35:05;;;;;;;7.43;5.57;;;;;;;-144.99;nan;52431.78;4975911;28;20227;-59
2021/05/16 04:37:31;;;;;;;10.27;5.10;;;;;;;-144.99;nan;52382.88;4978303;28;20223;-60
2021/05/16 04:40:02;;;;;;;7.40;5.63;;;;;;;-144.99;nan;52403.25;4979173;28;20231;-63
2021/05/16 04:42:34;;;;;;;7.10;5.00;;;;;;;-144.99;nan;52431.78;4980376;28;20227;-64
2021/05/16 04:45:03;;;;;;;7.00;4.70;;;;;;;-144.99;nan;52399.19;4978732;28;20212;-63
2021/05/16 04:47:30;;;;;;;5.27;4.47;;;;;;;-144.99;nan;52439.94;4974021;28;20204;-63
2021/05/16 04:49:56;;;;;;;6.60;4.77;;;;;;;-144.99;nan;52431.78;4982072;28;20242;-64
2021/05/16 04:52:24;;;;;;;6.93;6.23;;;;;;;-144.99;nan;52419.56;4971291;28;20224;-64
2021/05/16 04:54:50;;;;;;;6.23;5.57;;;;;;;-144.99;nan;52415.47;4977345;28;20602;-63
2021/05/16 04:57:22;;;;;;;7.63;4.90;;;;;;;-144.99;nan;52309.50;4979285;28;20678;-63
2021/05/16 04:59:52;;;;;;;6.70;5.53;;;;;;;-144.99;nan;52407.31;4977562;28;20286;-65
2021/05/16 05:02:21;;;;;;;7.97;5.33;;;;;;;-144.99;nan;52403.25;4978305;28;20235;-65
2021/05/16 05:04:48;;;;;;;10.20;5.70;;;;;;;-144.99;nan;52403.25;4975914;28;20667;-71
2021/05/16 05:07:18;;;;;;;5.93;4.93;;;;;;;-144.99;nan;52374.72;4980345;28;20204;-70
2021/05/16 05:09:44;;;;;;;7.37;5.40;;;;;;;-144.99;nan;52423.63;4971757;28;20228;-69
2021/05/16 05:12:10;;;;;;;10.53;7.23;;;;;;;-144.99;nan;52368.59;4982689;28;20311;-62
2021/05/16 05:14:36;;;;;;;12.87;9.20;;;;;;;-144.99;nan;52421.59;4978515;28;20223;-63
2021/05/16 05:17:08;;;;;;;12.77;9.90;;;;;;;-144.99;nan;52427.72;4978235;28;20215;-61
2021/05/16 05:19:34;;;;;;;13.37;9.27;;;;;;;-144.99;nan;52382.88;4980106;28;20224;-61
2021/05/16 05:22:07;;;;;;;11.70;9.43;;;;;;;-144.99;nan;52382.88;4979324;28;20238;-62
2021/05/16 05:24:33;;;;;;;11.97;8.07;;;;;;;-144.99;nan;52378.78;4973680;28;20220;-61
2021/05/16 05:26:59;;;;;;;9.03;6.57;;;;;;;-144.99;nan;52382.88;4980491;28;20684;-58
2021/05/16 05:29:25;;;;;;;7.23;5.10;;;;;;;-144.99;nan;52384.91;4979365;28;20224;-59
2021/05/16 05:31:51;;;;;;;8.70;5.47;;;;;;;-144.99;nan;52399.19;4977200;28;20326;-60
2021/05/16 05:34:17;;;;;;;7.83;4.93;;;;;;;-144.99;nan;52382.88;4979731;28;20306;-58
2021/05/16 05:36:43;;;;;;;6.43;4.97;;;;;;;-144.99;nan;52431.78;4980534;28;20339;-59
2021/05/16 05:39:11;;;;;;;9.17;6.40;;;;;;;-144.99;nan;52342.09;4972587;28;20263;-59
2021/05/16 05:41:37;;;;;;;9.67;7.20;;;;;;;-144.99;nan;52415.47;4982494;28;20211;-59
2021/05/16 05:44:07;;;;;;;7.00;5.30;;;;;;;-144.99;nan;52399.19;4975348;28;20440;-59
2021/05/16 05:46:35;;;;;;;5.37;3.97;;;;;;;-144.99;nan;52380.84;4967811;28;20218;-60
2021/05/16 05:49:04;;;;;;;6.20;3.80;;;;;;;-144.99;nan;52384.91;4976101;28;20718;-61
2021/05/16 05:51:31;;;;;;;5.13;3.87;;;;;;;-144.99;nan;52386.94;4978477;28;20663;-61
2021/05/16 05:53:57;;;;;;;5.13;4.20;;;;;;;-144.99;nan;52354.34;4977145;28;20216;-64
2021/05/16 05:56:24;;;;;;;5.07;3.47;;;;;;;-144.99;nan;52362.50;4975527;28;20216;-63
2021/05/16 05:58:53;;;;;;;4.20;3.40;;;;;;;-144.99;nan;52378.78;4976076;28;20240;-63
2021/05/16 06:01:19;;;;;;;6.73;4.73;;;;;;;-144.99;nan;52346.19;4976809;28;20409;-63
2021/05/16 06:03:47;;;;;;;4.93;3.20;;;;;;;-144.99;nan;52358.41;4981682;28;20346;-63
2021/05/16 06:06:13;;;;;;;4.70;3.30;;;;;;;-144.99;nan;52382.88;4977603;28;20212;-63
2021/05/16 06:08:42;;;;;;;4.83;3.50;;;;;;;-144.99;nan;52362.50;4974395;28;20228;-63
2021/05/16 06:11:08;;;;;;;5.10;4.40;;;;;;;-144.99;nan;52354.34;4979661;28;20239;-64
2021/05/16 06:13:41;;;;;;;5.60;3.27;;;;;;;-144.99;nan;52350.25;4977715;28;20681;-63
2021/05/16 06:16:07;;;;;;;5.53;4.40;;;;;;;-144.99;nan;52391.03;4972655;28;20208;-64
2021/05/16 06:18:36;;;;;;;5.27;4.37;;;;;;;-144.99;nan;52419.56;4980224;28;20719;-65
2021/05/16 06:21:05;;;;;;;6.03;4.47;;;;;;;-144.99;nan;52393.06;4974775;28;20270;-67
2021/05/16 06:23:45;;;;;;;5.60;3.93;;;;;;;-144.99;nan;52346.19;4967082;28;20216;-63
2021/05/16 06:26:11;;;;;;;6.70;4.47;;;;;;;-144.99;nan;52374.72;4977921;28;20623;-63
2021/05/16 06:28:41;;;;;;;6.67;4.60;;;;;;;-144.99;nan;52397.13;4977369;28;20236;-63
2021/05/16 06:31:07;;;;;;;7.50;4.77;;;;;;;-144.99;nan;52374.72;4973086;28;20220;-65
2021/05/16 06:33:33;;;;;;;10.53;5.50;;;;;;;-144.99;nan;52366.56;4976750;28;20307;-64
2021/05/16 06:36:02;;;;;;;7.47;5.33;;;;;;;-144.99;nan;52370.63;4974821;28;20212;-58
2021/05/16 06:38:30;;;;;;;6.43;4.93;;;;;;;-144.99;nan;52407.31;4976962;28;20228;-59
2021/05/16 06:40:59;;;;;;;7.33;5.20;;;;;;;-144.99;nan;52358.41;4976938;28;20204;-59
2021/05/16 06:43:25;;;;;;;6.83;5.17;;;;;;;-144.99;nan;52413.44;4979552;28;20589;-60
2021/05/16 06:45:55;;;;;;;6.47;4.60;;;;;;;-144.99;nan;52391.03;4977117;28;20200;-59
2021/05/16 06:48:21;;;;;;;9.97;4.80;;;;;;;-144.99;nan;52331.91;4974456;28;20232;-60
2021/05/16 06:50:47;;;;;;;7.43;4.30;;;;;;;-144.99;nan;52374.72;4980092;28;20208;-63
2021/05/16 06:53:16;;;;;;;6.33;5.40;;;;;;;-144.99;nan;52415.47;4974757;28;20204;-67
2021/05/16 06:55:42;;;;;;;5.93;4.87;;;;;;;-144.99;nan;52407.31;4974439;28;20335;-67
2021/05/16 06:58:10;;;;;;;6.97;5.23;;;;;;;-144.99;nan;52382.88;4980777;28;20312;-68
2021/05/16 07:00:36;;;;;;;9.30;5.87;;;;;;;-144.99;nan;52366.56;4974017;28;20215;-66
2021/05/16 07:03:03;;;;;;;7.37;6.67;;;;;;;-144.99;nan;52380.84;4971096;28;20270;-62
2021/05/16 07:05:32;;;;;;;7.83;6.00;;;;;;;-144.99;nan;52386.94;4977933;28;20210;-62
2021/05/16 07:07:58;;;;;;;11.47;8.30;;;;;;;-144.99;nan;52378.78;4973479;28;20215;-61
2021/05/16 07:10:24;;;;;;;7.50;5.77;;;;;;;-144.99;nan;52366.56;4979185;28;20670;-61
2021/05/16 07:12:51;;;;;;;6.67;5.90;;;;;;;-144.99;nan;52399.19;4972899;28;21124;-62
2021/05/16 07:15:17;;;;;;;7.67;5.57;;;;;;;-144.99;nan;52409.38;4977437;28;20258;-64
2021/05/16 07:17:43;;;;;;;8.63;7.13;;;;;;;-144.99;nan;52374.72;4977870;28;20204;-62
2021/05/16 07:20:12;;;;;;;6.50;5.63;;;;;;;-144.99;nan;52382.88;4983340;28;20204;-61
2021/05/16 07:22:40;;;;;;;7.00;6.30;;;;;;;-144.99;nan;52380.84;4979503;28;20215;-61
2021/05/16 07:25:11;;;;;;;6.73;6.00;;;;;;;-144.99;nan;52338.03;4978165;28;20298;-61
2021/05/16 07:27:42;;;;;;;7.77;6.93;;;;;;;-144.99;nan;52397.13;4980211;28;20215;-61
2021/05/16 07:30:12;;;;;;;8.50;7.63;;;;;;;-144.99;nan;52395.09;4982501;28;20228;-61
2021/05/16 07:32:44;;;;;;;10.93;9.73;;;;;;;-144.99;nan;52366.56;4978116;28;20212;-62
2021/05/16 07:35:14;;;;;;;13.23;10.77;;;;;;;-144.99;nan;52338.03;4985489;28;20575;-61
2021/05/16 07:37:42;;;;;;;15.83;14.13;;;;;;;-144.99;nan;52370.63;4980211;28;20670;-62
2021/05/16 07:40:12;;;;;;;14.90;13.43;;;;;;;-144.99;nan;52378.78;4979272;28;20215;-61
2021/05/16 07:42:41;;;;;;;14.13;12.10;;;;;;;-144.99;nan;52350.25;4982800;28;20221;-62
2021/05/16 07:45:09;;;;;;;12.30;11.10;;;;;;;-144.99;nan;52350.25;4980797;28;20239;-60
2021/05/16 07:47:35;;;;;;;13.30;11.93;;;;;;;-144.99;nan;52358.41;4978062;28;20215;-61
2021/05/16 07:50:01;;;;;;;11.30;10.10;;;;;;;-144.99;nan;52346.19;4985636;28;20231;-61
2021/05/16 07:52:31;;;;;;;9.93;8.93;;;;;;;-144.99;nan;52388.97;4977497;28;20204;-61
2021/05/16 07:54:57;;;;;;;11.20;10.07;;;;;;;-144.99;nan;52360.44;4976100;28;20244;-61
2021/05/16 07:57:26;;;;;;;11.10;10.00;;;;;;;-144.99;nan;52395.09;4980026;28;20207;-62
2021/05/16 07:59:52;;;;;;;10.47;9.47;;;;;;;-144.99;nan;52327.84;4977774;28;20271;-61
2021/05/16 08:02:21;;;;;;;10.00;8.90;;;;;;;-144.99;nan;52313.56;4982359;28;20208;-61
2021/05/16 08:04:47;;;;;;;9.87;8.90;;;;;;;-144.99;nan;52321.72;4980116;28;20212;-62
2021/05/16 08:07:16;;;;;;;9.00;8.17;;;;;;;-144.99;nan;52315.59;4980897;28;20314;-62
2021/05/16 08:09:48;;;;;;;9.87;8.17;;;;;;;-144.99;nan;52350.25;4977781;28;20255;-61
2021/05/16 08:12:20;;;;;;;10.20;9.17;;;;;;;-144.99;nan;52317.66;4983692;28;20214;-62
2021/05/16 08:14:46;;;;;;;9.00;8.10;;;;;;;-144.99;nan;52301.34;4979960;28;20263;-62
2021/05/16 08:17:14;;;;;;;9.03;7.90;;;;;;;-144.99;nan;52325.81;4973162;28;20218;-61
2021/05/16 08:19:41;;;;;;;10.27;9.37;;;;;;;-144.99;nan;52366.56;4982140;28;20289;-61
2021/05/16 08:22:10;;;;;;;10.50;9.50;;;;;;;-144.99;nan;52354.34;4979350;28;20235;-64
2021/05/16 08:24:39;;;;;;;11.90;10.77;;;;;;;-144.99;nan;52362.50;4981740;28;20208;-61
2021/05/16 08:27:10;;;;;;;11.67;10.57;;;;;;;-144.99;nan;52391.03;4980052;28;20211;-63
2021/05/16 08:29:36;;;;;;;10.67;9.63;;;;;;;-144.99;nan;52309.50;4980900;28;20660;-63
2021/05/16 08:32:04;;;;;;;11.63;10.43;;;;;;;-144.99;nan;52366.56;4978563;28;20648;-62
2021/05/16 08:34:30;;;;;;;11.67;9.50;;;;;;;-144.99;nan;52350.25;4982696;28;20212;-60
2021/05/16 08:36:56;;;;;;;10.43;9.47;;;;;;;-144.99;nan;52321.72;4986793;28;20208;-63
2021/05/16 08:39:22;;;;;;;10.60;9.60;;;;;;;-144.99;nan;52338.03;4975591;28;20234;-62
2021/05/16 08:41:48;;;;;;;9.70;8.37;;;;;;;-144.99;nan;52399.19;4984321;28;20236;-64
2021/05/16 08:44:23;;;;;;;9.73;8.73;;;;;;;-144.99;nan;52329.88;4979534;28;20210;-62
2021/05/16 08:46:49;;;;;;;7.83;5.47;;;;;;;-144.99;nan;52333.94;4976727;28;20597;-62
2021/05/16 08:49:15;;;;;;;6.67;5.57;;;;;;;-144.99;nan;52342.09;4979467;28;20238;-63
2021/05/16 08:51:45;;;;;;;8.30;5.53;;;;;;;-144.99;nan;52317.66;4977930;28;20642;-61
2021/05/16 08:54:16;;;;;;;7.03;5.07;;;;;;;-144.99;nan;52329.88;4978951;28;20204;-63
2021/05/16 08:56:45;;;;;;;6.37;5.33;;;;;;;-144.99;nan;52321.72;4976719;28;20268;-63
2021/05/16 08:59:23;;;;;;;7.17;5.77;;;;;;;-144.99;nan;52305.41;4980791;28;20386;-64
2021/05/16 09:01:55;;;;;;;8.50;5.30;;;;;;;-144.99;nan;52329.88;4979370;28;20665;-65
2021/05/16 09:04:32;;;;;;;6.77;4.93;;;;;;;-144.99;nan;52309.50;4982441;28;20209;-64
2021/05/16 09:07:01;;;;;;;8.27;7.27;;;;;;;-144.99;nan;52342.09;4980122;28;20210;-64
2021/05/16 09:09:39;;;;;;;7.13;4.80;;;;;;;-144.99;nan;52342.09;4974860;28;20241;-63
2021/05/16 09:12:12;;;;;;;6.70;6.03;;;;;;;-144.99;nan;52301.34;4982179;28;20216;-64
2021/05/16 09:14:57;;;;;;;8.17;6.27;;;;;;;-144.99;nan;52321.72;4978776;28;20215;-64
2021/05/16 09:17:29;;;;;;;8.40;6.97;;;;;;;-144.99;nan;52338.03;4969971;28;20248;-64
2021/05/16 09:19:58;;;;;;;10.53;6.33;;;;;;;-144.99;nan;52374.72;4981490;28;20269;-66
2021/05/16 09:22:48;;;;;;;8.47;6.53;;;;;;;-144.99;nan;52391.03;4977981;28;20220;-66
2021/05/16 09:25:16;;;;;;;8.37;6.87;;;;;;;-144.99;nan;52386.94;4969339;28;20208;-67
2021/05/16 09:27:44;;;;;;;8.13;5.80;;;;;;;-144.99;nan;52360.44;4979085;28;20221;-68
2021/05/16 09:30:36;;;;;;;8.03;6.20;;;;;;;-144.99;nan;52391.03;4981050;28;20702;-66
2021/05/16 09:33:12;;;;;;;8.43;6.40;;;;;;;-144.99;nan;52362.50;4977809;28;20216;-69
2021/05/16 09:35:50;;;;;;;11.10;5.63;;;;;;;-144.99;nan;52350.25;4976375;28;20215;-68
2021/05/16 09:38:20;;;;;;;8.67;5.33;;;;;;;-144.99;nan;52338.03;4980504;28;20226;-68
2021/05/16 09:40:49;;;;;;;9.17;6.60;;;;;;;-144.99;nan;52331.91;4977737;28;20208;-66
2021/05/16 09:43:23;;;;;;;8.03;6.97;;;;;;;-144.99;nan;52319.69;4967213;28;20680;-67
2021/05/16 09:45:55;;;;;;;7.90;5.60;;;;;;;-144.99;nan;52325.81;4979914;28;20249;-68
2021/05/16 09:48:43;;;;;;;15.00;10.00;;;;;;;-144.99;nan;52315.59;4976657;28;20224;-68
2021/05/16 09:51:23;;;;;;;9.57;7.67;;;;;;;-144.99;nan;52276.88;4982766;28;20311;-68
2021/05/16 09:54:04;;;;;;;10.07;7.63;;;;;;;-144.99;nan;52293.19;4976358;28;20261;-68
2021/05/16 09:56:33;;;;;;;6.90;5.53;;;;;;;-144.99;nan;52313.56;4976037;28;20728;-69
2021/05/16 09:59:00;;;;;;;7.17;5.60;;;;;;;-144.99;nan;52325.81;4980100;28;20232;-73
2021/05/16 10:01:30;;;;;;;11.57;5.90;;;;;;;-144.99;nan;52287.06;5078849;23;20251;-64
2021/05/16 10:04:04;;;;;;;8.10;6.97;;;;;;;-144.99;nan;52342.09;4969251;28;20223;-63
2021/05/16 10:06:31;;;;;;;8.57;6.00;;;;;;;-144.99;nan;52321.72;4974553;28;20722;-64
2021/05/16 10:09:04;;;;;;;10.33;6.60;;;;;;;-144.99;nan;52309.50;4971046;28;20238;-64
2021/05/16 10:11:31;;;;;;;10.30;5.70;;;;;;;-144.99;nan;52321.72;4971201;28;20204;-64
2021/05/16 10:14:06;;;;;;;10.13;5.80;;;;;;;-144.99;nan;52264.66;4971109;28;20208;-65
2021/05/16 10:16:40;;;;;;;6.93;5.63;;;;;;;-144.99;nan;52276.88;4970860;28;20202;-64
2021/05/16 10:19:16;;;;;;;8.87;5.63;;;;;;;-144.99;nan;52256.50;4971379;28;20232;-64
2021/05/16 10:21:42;;;;;;;8.23;6.67;;;;;;;-144.99;nan;52317.66;4971895;28;20223;-65
2021/05/16 10:24:13;;;;;;;6.87;6.07;;;;;;;-144.99;nan;52340.06;4970949;28;20210;-64
2021/05/16 10:26:40;;;;;;;8.40;7.43;;;;;;;-144.99;nan;52338.03;4967978;28;20210;-65
2021/05/16 10:29:09;;;;;;;5.57;3.13;;;;;;;-144.99;nan;52344.16;4980562;28;20286;-64
2021/05/16 10:31:52;;;;;;;5.00;3.23;;;;;;;-144.99;nan;52338.03;4973094;28;20262;-64
2021/05/16 10:34:41;;;;;;;7.60;4.37;;;;;;;-144.99;nan;52309.50;4972484;28;20234;-64
2021/05/16 10:37:08;;;;;;;6.80;3.00;;;;;;;-144.99;nan;52346.19;4971360;28;20214;-64
2021/05/16 10:39:53;;;;;;;3.83;2.07;;;;;;;-144.99;nan;52362.50;4970748;28;20258;-65
2021/05/16 10:42:38;;;;;;;3.40;1.70;;;;;;;-144.99;nan;52374.72;4964288;28;20208;-66
2021/05/16 10:45:11;;;;;;;4.70;2.17;;;;;;;-144.99;nan;52317.66;4970252;28;20215;-65
2021/05/16 10:48:08;;;;;;;3.50;2.17;;;;;;;-144.99;nan;52260.56;4973706;28;20214;-66
2021/05/16 10:50:54;;;;;;;4.80;3.23;;;;;;;-144.99;nan;52211.66;4971369;28;20217;-66
2021/05/16 10:53:31;;;;;;;3.97;2.30;;;;;;;-144.99;nan;52209.63;4960244;28;20688;-65
2021/05/16 10:56:21;;;;;;;3.33;2.07;;;;;;;-144.99;nan;52293.19;4971443;28;20249;-66
2021/05/16 10:58:59;;;;;;;2.93;2.40;;;;;;;-144.99;nan;52325.81;4970597;28;20235;-65
2021/05/16 11:01:41;;;;;;;7.50;5.27;;;;;;;-144.99;nan;52344.16;4971241;28;20219;-66
2021/05/16 11:04:09;;;;;;;6.83;3.40;;;;;;;-144.99;nan;52338.03;4964751;28;20215;-65
2021/05/16 11:07:05;;;;;;;5.20;2.73;;;;;;;-144.99;nan;52391.03;4971596;28;20242;-64
2021/05/16 11:09:35;;;;;;;6.47;2.80;;;;;;;-144.99;nan;52370.63;4964128;28;20302;-65
2021/05/16 11:12:02;;;;;;;6.43;4.20;;;;;;;-144.99;nan;52419.56;4971225;28;20696;-65
2021/05/16 11:14:35;;;;;;;5.60;2.97;;;;;;;-144.99;nan;52386.94;4970582;28;20221;-64
2021/05/16 11:17:03;;;;;;;3.83;2.63;;;;;;;-144.99;nan;52378.78;4970823;28;20607;-66
2021/05/16 11:19:31;;;;;;;6.57;2.30;;;;;;;-144.99;nan;52391.03;4970671;28;20244;-66
2021/05/16 11:22:19;;;;;;;3.97;2.93;;;;;;;-144.99;nan;52376.75;4970742;28;20474;-64
2021/05/16 11:24:50;;;;;;;4.07;2.23;;;;;;;-144.99;nan;52388.97;4970835;28;20222;-64
2021/05/16 11:27:32;;;;;;;5.30;2.77;;;;;;;-144.99;nan;52391.03;4969591;28;20291;-65
2021/05/16 11:30:01;;;;;;;4.03;2.07;;;;;;;-144.99;nan;52374.72;4977192;28;20272;-65
2021/05/16 11:32:29;;;;;;;5.83;3.13;;;;;;;-144.99;nan;52395.09;4978695;28;20515;-65
2021/05/16 11:35:11;;;;;;;5.13;2.70;;;;;;;-144.99;nan;52374.72;4973410;28;20212;-66
2021/05/16 11:37:39;;;;;;;4.70;3.00;;;;;;;-144.99;nan;52372.69;4970729;28;20311;-65
2021/05/16 11:40:20;;;;;;;6.17;3.47;;;;;;;-144.99;nan;52338.03;4971068;28;20308;-65
2021/05/16 11:42:47;;;;;;;8.93;3.10;;;;;;;-144.99;nan;52313.56;4967216;28;20303;-65